Time;durP1;ratioP1;P1;durP2;ratioP2;P2;SDS_P1;SDS_P2;PMS_P1;PMS_P2;Temp;Humidity;BMP_temperature;BMP_pressure;BME280_temperature;BME280_humidity;BME280_pressure;Samples;Min_cycle;Max_cycle;Signal;HPM_P1;HPM_P2
2022/07/26 00:01:44;;;;;;;6.97;1.83;;;;;;;18.59;73.76;101319.34;5073176;28;19908;-37
2022/07/26 00:04:10;;;;;;;4.50;1.45;;;;;;;18.66;74.06;101330.06;5073365;28;20112;-36
2022/07/26 00:06:36;;;;;;;6.80;2.03;;;;;;;18.70;73.80;101326.53;5073646;28;20131;-36
2022/07/26 00:09:02;;;;;;;10.05;1.77;;;;;;;18.57;74.34;101313.34;5073307;28;20515;-36
2022/07/26 00:11:29;;;;;;;;;;;;;;;18.76;73.32;101332.84;5074247;28;20348;-36
2022/07/26 00:13:54;;;;;;;6.88;1.83;;;;;;;18.56;74.06;101313.63;5073274;28;19999;-36
2022/07/26 00:16:20;;;;;;;7.55;2.10;;;;;;;18.63;74.43;101333.34;5073149;28;20450;-36
2022/07/26 00:18:46;;;;;;;7.93;2.10;;;;;;;18.58;74.53;101334.16;5073146;28;20028;-36
2022/07/26 00:21:12;;;;;;;9.18;2.10;;;;;;;18.48;74.92;101326.75;5073843;28;20113;-37
2022/07/26 00:23:37;;;;;;;8.25;1.98;;;;;;;18.56;75.24;101328.13;5073669;28;20191;-36
2022/07/26 00:26:03;;;;;;;;;;;;;;;18.68;73.24;101331.44;5073626;28;20066;-36
2022/07/26 00:28:28;;;;;;;5.73;2.10;;;;;;;18.50;74.79;101321.03;5072775;28;19908;-36
2022/07/26 00:30:53;;;;;;;;;;;;;;;18.69;72.82;101335.00;5073536;28;20267;-37
2022/07/26 00:33:18;;;;;;;7.40;1.70;;;;;;;18.45;75.02;101338.25;5072734;28;19908;-36
2022/07/26 00:35:44;;;;;;;;;;;;;;;18.68;72.94;101336.94;5073052;28;20353;-37
2022/07/26 00:38:09;;;;;;;7.45;2.17;;;;;;;18.50;74.94;101323.75;5072841;28;19939;-37
2022/07/26 00:40:35;;;;;;;7.07;2.17;;;;;;;18.50;74.78;101337.44;5073047;28;20039;-37
2022/07/26 00:43:00;;;;;;;6.05;1.90;;;;;;;18.53;74.81;101350.59;5072906;28;20407;-37
2022/07/26 00:45:26;;;;;;;8.63;2.28;;;;;;;18.56;74.48;101352.78;5072604;28;20468;-36
2022/07/26 00:47:51;;;;;;;;;;;;;;;18.61;73.39;101346.50;5073904;28;20099;-37
2022/07/26 00:50:17;;;;;;;5.47;1.70;;;;;;;18.44;75.32;101344.00;5072816;28;19916;-37
2022/07/26 00:52:45;;;;;;;8.52;2.05;;;;;;;18.41;75.98;101353.59;5072749;28;20036;-36
2022/07/26 00:55:11;;;;;;;8.60;2.20;;;;;;;18.43;75.94;101350.56;5072723;28;20076;-36
2022/07/26 00:57:37;;;;;;;8.02;2.38;;;;;;;18.39;76.36;101346.72;5072720;28;20100;-36
2022/07/26 01:00:09;;;;;;;7.05;2.25;;;;;;;18.29;76.68;101344.78;5073284;28;20028;-36
2022/07/26 01:02:34;;;;;;;9.73;2.30;;;;;;;18.31;76.56;101334.41;5072631;28;20021;-36
2022/07/26 01:05:00;;;;;;;6.80;1.98;;;;;;;18.31;77.05;101336.31;5072723;28;20028;-37
2022/07/26 01:07:27;;;;;;;8.45;2.33;;;;;;;18.32;76.82;101337.97;5072418;28;20055;-36
2022/07/26 01:09:52;;;;;;;6.70;2.15;;;;;;;18.38;76.95;101342.34;5072981;28;20032;-37
2022/07/26 01:12:17;;;;;;;11.30;2.08;;;;;;;18.33;77.09;101339.59;5072571;28;20115;-37
2022/07/26 01:14:44;;;;;;;8.43;2.33;;;;;;;18.34;77.14;101335.75;5072801;28;20376;-37
2022/07/26 01:17:13;;;;;;;8.20;2.33;;;;;;;18.32;77.02;101343.44;5074848;28;20427;-36
2022/07/26 01:19:39;;;;;;;6.10;2.08;;;;;;;18.31;77.57;101336.31;5076929;28;20032;-36
2022/07/26 01:22:04;;;;;;;6.57;2.15;;;;;;;18.25;77.74;101333.56;5076544;28;20146;-37
2022/07/26 01:24:30;;;;;;;9.20;2.63;;;;;;;18.14;78.57;101326.41;5077205;28;20063;-37
2022/07/26 01:26:55;;;;;;;6.07;1.88;;;;;;;18.23;78.34;101334.94;5076434;28;20111;-36
2022/07/26 01:29:22;;;;;;;8.40;2.17;;;;;;;18.24;79.27;101333.81;5076874;28;20035;-36
2022/07/26 01:31:47;;;;;;;6.43;1.85;;;;;;;18.28;78.61;101340.41;5076515;28;20117;-36
2022/07/26 01:34:13;;;;;;;6.90;1.92;;;;;;;18.35;79.10;101342.88;5076718;28;20547;-36
2022/07/26 01:36:38;;;;;;;9.20;2.05;;;;;;;18.25;79.85;101330.84;5076171;28;20111;-36
2022/07/26 01:39:03;;;;;;;8.35;2.10;;;;;;;18.29;79.53;101336.56;5076185;28;20028;-36
2022/07/26 01:41:29;;;;;;;;;;;;;;;18.39;77.45;101333.03;5076592;28;20031;-36
2022/07/26 01:43:54;;;;;;;9.33;1.97;;;;;;;18.22;79.37;101325.91;5076404;28;19958;-37
2022/07/26 01:46:19;;;;;;;6.93;1.80;;;;;;;18.28;79.47;101338.50;5076264;28;20028;-36
2022/07/26 01:48:45;;;;;;;5.53;2.00;;;;;;;18.32;79.18;101333.31;5076262;28;20060;-36
2022/07/26 01:51:10;;;;;;;;;;;;;;;18.43;76.97;101334.13;5076735;28;20032;-36
2022/07/26 01:53:35;;;;;;;6.67;1.97;;;;;;;18.27;79.06;101331.38;5075906;28;19966;-36
2022/07/26 01:56:01;;;;;;;7.90;2.47;;;;;;;18.18;80.13;101330.25;5075526;28;20377;-36
2022/07/26 01:58:26;;;;;;;7.47;2.05;;;;;;;18.24;79.70;101331.09;5075767;28;20407;-36
2022/07/26 02:00:51;;;;;;;;;;;;;;;18.34;77.63;101336.59;5076774;28;20083;-36
2022/07/26 02:03:16;;;;;;;7.13;1.60;;;;;;;18.24;80.39;101344.78;5075643;28;19913;-36
2022/07/26 02:05:42;;;;;;;;;;;;;;;18.32;77.65;101349.72;5076457;28;20315;-36
2022/07/26 02:08:07;;;;;;;6.37;2.00;;;;;;;18.24;80.02;101348.34;5075720;28;19915;-36
2022/07/26 02:13:16;;;;;;;6.45;2.03;;;;;;;18.21;80.73;101343.41;5075615;28;20109;-36
2022/07/26 02:15:42;;;;;;;8.93;2.42;;;;;;;18.22;80.82;101341.50;5076027;28;20033;-36
2022/07/26 02:18:07;;;;;;;;;;;;;;;18.32;78.71;101343.44;5076159;28;20441;-36
2022/07/26 02:20:33;;;;;;;6.40;2.65;;;;;;;18.14;80.77;101331.88;5075580;28;20332;-36
2022/07/26 02:23:01;;;;;;;;;;;;;;;18.31;78.73;101344.53;5076218;28;20024;-36
2022/07/26 02:25:27;;;;;;;11.38;2.50;;;;;;;18.18;81.27;101343.94;5075625;28;19912;-36
2022/07/26 02:27:52;;;;;;;6.75;2.20;;;;;;;18.16;81.96;101342.59;5074809;28;20017;-36
2022/07/26 02:30:18;;;;;;;;;;;;;;;18.25;79.11;101338.19;5076495;28;20373;-36
2022/07/26 02:32:43;;;;;;;10.43;2.70;;;;;;;18.13;81.98;101354.06;5075299;28;19999;-36
2022/07/26 02:35:09;;;;;;;8.77;2.80;;;;;;;18.11;82.26;101354.34;5075090;28;20028;-36
2022/07/26 02:37:34;;;;;;;;;;;;;;;18.19;80.66;101351.06;5075535;28;20021;-36
2022/07/26 02:40:01;;;;;;;7.40;3.00;;;;;;;18.09;82.81;101356.50;5075549;28;20045;-36
2022/07/26 02:42:26;;;;;;;9.63;2.80;;;;;;;18.09;83.24;101361.97;5075300;28;20085;-36
2022/07/26 02:44:52;;;;;;;12.80;3.40;;;;;;;18.10;82.98;101355.41;5075068;28;20106;-36
2022/07/26 02:47:18;;;;;;;8.82;3.35;;;;;;;18.09;82.98;101356.50;5074665;28;20131;-36
2022/07/26 02:49:43;;;;;;;11.90;3.67;;;;;;;18.11;83.44;101365.28;5075185;28;20430;-35
2022/07/26 02:52:08;;;;;;;;;;;;;;;18.18;81.62;101365.03;5074992;28;20064;-35
2022/07/26 02:54:34;;;;;;;9.23;3.13;;;;;;;18.04;83.56;101356.50;5075040;28;19962;-35
2022/07/26 02:56:59;;;;;;;;;;;;;;;18.14;81.38;101362.00;5075208;28;20055;-35
2022/07/26 02:59:24;;;;;;;9.68;3.05;;;;;;;17.97;84.04;101355.94;5074526;28;20290;-35
2022/07/26 03:01:49;;;;;;;;;;;;;;;18.11;81.62;101373.50;5075097;28;20032;-35
2022/07/26 03:04:15;;;;;;;11.67;3.40;;;;;;;17.97;84.27;101362.22;5074283;28;19918;-35
2022/07/26 03:06:40;;;;;;;12.98;3.58;;;;;;;17.93;84.85;101363.03;5074322;28;20111;-35
2022/07/26 03:09:05;;;;;;;8.90;3.35;;;;;;;17.97;84.74;101377.81;5074760;28;20067;-36
2022/07/26 03:11:31;;;;;;;11.98;3.10;;;;;;;17.94;84.93;101381.91;5074487;28;20029;-36
2022/07/26 03:13:56;;;;;;;;;;;;;;;18.04;82.75;101378.38;5075318;28;20123;-36
2022/07/26 03:16:21;;;;;;;12.57;3.57;;;;;;;17.86;85.00;101362.44;5074128;28;20339;-36
2022/07/26 03:18:46;;;;;;;;;;;;;;;17.99;82.25;101378.34;5074651;28;20103;-36
2022/07/26 03:21:12;;;;;;;11.13;3.87;;;;;;;17.84;85.10;101375.56;5074736;28;19970;-35
2022/07/26 03:23:37;;;;;;;;;;;;;;;17.97;82.54;101384.09;5074638;28;20631;-35
2022/07/26 03:26:02;;;;;;;10.48;3.40;;;;;;;17.88;85.22;101379.41;5073888;28;19908;-35
2022/07/26 03:28:31;;;;;;;;;;;;;;;17.98;82.52;101391.22;5074979;28;20051;-35
2022/07/26 03:30:56;;;;;;;13.43;3.90;;;;;;;17.81;86.12;101392.50;5074258;28;19909;-35
2022/07/26 03:33:21;;;;;;;;;;;;;;;17.91;83.39;101396.13;5074649;28;20047;-35
2022/07/26 03:35:47;;;;;;;14.73;4.00;;;;;;;17.80;85.80;101393.59;5073701;28;19919;-35
2022/07/26 03:38:12;;;;;;;;;;;;;;;17.89;83.60;101398.28;5074317;28;20055;-35
2022/07/26 03:40:37;;;;;;;16.20;3.63;;;;;;;17.74;86.44;101399.03;5072933;28;19915;-35
2022/07/26 03:43:02;;;;;;;15.77;3.70;;;;;;;17.71;86.40;101405.03;5073784;28;20028;-36
2022/07/26 03:45:28;;;;;;;;;;;;;;;17.83;83.79;101410.31;5074324;28;20125;-36
2022/07/26 03:47:53;;;;;;;11.35;3.47;;;;;;;17.63;86.56;101396.50;5073711;28;19909;-36
2022/07/26 03:50:18;;;;;;;;;;;;;;;17.81;83.83;101411.66;5073137;28;20047;-36
2022/07/26 03:52:44;;;;;;;9.80;3.27;;;;;;;17.60;87.50;101399.75;5073426;28;19934;-36
2022/07/26 03:57:53;;;;;;;12.48;3.35;;;;;;;17.68;87.03;101404.72;5073862;28;20343;-36
2022/07/26 04:00:18;;;;;;;10.48;3.83;;;;;;;17.60;88.08;101397.00;5072740;28;20104;-36
2022/07/26 04:02:43;;;;;;;;;;;;;;;17.73;84.92;101408.34;5074590;28;20391;-36
2022/07/26 04:05:10;;;;;;;9.98;3.13;;;;;;;17.70;87.37;101410.75;5073954;28;20003;-36
2022/07/26 04:07:45;;;;;;;12.65;3.33;;;;;;;17.65;87.66;101417.00;5073386;28;20119;-36
2022/07/26 04:10:11;;;;;;;14.38;3.65;;;;;;;17.69;87.99;101417.31;5074030;28;20029;-36
2022/07/26 04:12:37;;;;;;;13.05;3.75;;;;;;;17.71;87.79;101420.59;5072996;28;20028;-36
2022/07/26 04:15:03;;;;;;;14.50;4.50;;;;;;;17.71;88.15;101424.16;5073193;28;20490;-36
2022/07/26 04:17:29;;;;;;;11.73;3.85;;;;;;;17.72;88.30;101420.34;5073461;28;20063;-36
2022/07/26 04:19:54;;;;;;;12.13;4.10;;;;;;;17.77;88.45;101418.75;5074062;28;20072;-36
2022/07/26 04:22:19;;;;;;;;;;;;;;;17.87;86.40;101421.56;5073410;28;20517;-36
2022/07/26 04:24:45;;;;;;;9.33;3.30;;;;;;;17.80;88.09;101424.50;5073551;28;19912;-36
2022/07/26 04:27:10;;;;;;;;;;;;;;;17.89;85.99;101417.44;5073192;28;20810;-36
2022/07/26 04:29:35;;;;;;;10.20;3.40;;;;;;;17.87;87.76;101418.81;5073110;28;20000;-36
2022/07/26 04:32:00;;;;;;;;;;;;;;;17.91;86.00;101430.84;5073722;28;20028;-36
2022/07/26 04:34:26;;;;;;;12.87;3.90;;;;;;;17.78;88.27;101428.59;5072864;28;20394;-36
2022/07/26 04:36:51;;;;;;;;;;;;;;;17.89;86.58;101435.78;5073546;28;20029;-36
2022/07/26 04:39:23;;;;;;;15.30;3.72;;;;;;;17.85;87.97;101432.75;5073159;28;19982;-36
2022/07/26 04:41:48;;;;;;;10.55;3.28;;;;;;;17.73;88.16;101430.22;5073392;28;20037;-36
2022/07/26 04:44:13;;;;;;;13.68;3.92;;;;;;;17.81;87.86;101441.72;5072704;28;20400;-36
2022/07/26 04:46:39;;;;;;;;;;;;;;;17.89;86.14;101441.25;5073603;28;20090;-36
2022/07/26 04:49:04;;;;;;;12.17;3.63;;;;;;;17.76;88.18;101437.06;5072529;28;19987;-36
2022/07/26 04:51:29;;;;;;;;;;;;;;;17.88;85.81;101442.34;5073550;28;20255;-36
2022/07/26 04:53:54;;;;;;;11.23;3.50;;;;;;;17.70;87.52;101424.41;5073015;28;19978;-36
2022/07/26 04:56:20;;;;;;;;;;;;;;;17.90;85.49;101443.72;5073722;28;20507;-36
2022/07/26 04:58:45;;;;;;;12.07;3.53;;;;;;;17.76;87.98;101434.31;5072783;28;19912;-36
2022/07/26 05:01:10;;;;;;;;;;;;;;;17.93;85.51;101450.56;5073322;28;20300;-36
2022/07/26 05:03:35;;;;;;;8.60;3.33;;;;;;;17.91;87.88;101448.13;5072451;28;19970;-36
2022/07/26 05:06:00;;;;;;;;;;;;;;;18.04;85.39;101451.44;5073493;28;20075;-36
2022/07/26 05:08:26;;;;;;;8.63;3.47;;;;;;;18.00;87.30;101451.16;5073312;28;19959;-36
2022/07/26 05:10:51;;;;;;;12.50;3.72;;;;;;;18.01;87.76;101447.34;5072796;28;20060;-36
2022/07/26 05:13:16;;;;;;;;;;;;;;;18.17;85.32;101451.78;5073181;28;20036;-36
2022/07/26 05:15:42;;;;;;;10.97;3.20;;;;;;;18.15;87.02;101453.13;5072470;28;19920;-36
2022/07/26 05:18:08;;;;;;;;;;;;;;;18.30;85.23;101455.97;5071692;28;20283;-36
2022/07/26 05:20:35;;;;;;;11.68;3.35;;;;;;;18.28;87.05;101463.59;5072919;28;19943;-36
2022/07/26 05:23:00;;;;;;;10.65;3.53;;;;;;;18.30;86.64;101458.69;5072137;28;20033;-36
2022/07/26 05:25:26;;;;;;;10.35;3.67;;;;;;;18.31;87.00;101471.28;5073375;28;20081;-36
2022/07/26 05:27:51;;;;;;;;;;;;;;;18.48;85.34;101469.16;5072787;28;20399;-36
2022/07/26 05:30:17;;;;;;;11.95;3.70;;;;;;;18.44;86.28;101468.03;5072582;28;19912;-36
2022/07/26 05:32:42;;;;;;;;;;;;;;;18.61;84.58;101476.03;5072874;28;20111;-36
2022/07/26 05:35:07;;;;;;;9.33;3.30;;;;;;;18.67;85.62;101471.41;5072131;28;19919;-36
2022/07/26 05:37:33;;;;;;;;;;;;;;;18.76;84.78;101475.28;5072884;28;20445;-36
2022/07/26 05:39:58;;;;;;;10.52;3.50;;;;;;;18.65;85.07;101465.38;5072787;28;19908;-36
2022/07/26 05:42:24;;;;;;;;;;;;;;;18.87;84.16;101474.22;5072051;28;20048;-36
2022/07/26 05:44:50;;;;;;;10.60;3.92;;;;;;;18.77;84.97;101461.31;5072999;28;19912;-36
2022/07/26 05:47:16;;;;;;;12.00;3.97;;;;;;;18.85;85.01;101475.59;5071876;28;20024;-36
2022/07/26 05:49:41;;;;;;;9.88;4.18;;;;;;;18.91;84.76;101472.59;5072221;28;20074;-36
2022/07/26 05:52:09;;;;;;;11.02;3.60;;;;;;;19.00;84.09;101475.63;5072180;28;20112;-36
2022/07/26 05:54:35;;;;;;;14.07;3.72;;;;;;;19.03;83.58;101480.53;5072493;28;20052;-36
2022/07/26 05:57:01;;;;;;;10.95;3.55;;;;;;;19.08;83.74;101483.31;5071857;28;20078;-35
2022/07/26 05:59:27;;;;;;;8.02;3.45;;;;;;;19.06;83.17;101477.25;5071883;28;20033;-35
2022/07/26 06:01:55;;;;;;;9.20;3.40;;;;;;;19.07;82.93;101483.56;5071883;28;20032;-36
2022/07/26 06:04:21;;;;;;;8.57;3.33;;;;;;;18.98;83.27;101488.75;5076242;28;20071;-36
2022/07/26 06:06:46;;;;;;;10.27;3.20;;;;;;;19.02;83.04;101495.34;5076035;28;20419;-36
2022/07/26 06:09:12;;;;;;;8.35;3.28;;;;;;;19.23;82.70;101496.22;5075598;28;20032;-36
2022/07/26 06:11:37;;;;;;;7.25;3.50;;;;;;;19.22;82.25;101483.56;5074337;28;20036;-36
2022/07/26 06:14:02;;;;;;;9.02;3.20;;;;;;;19.26;81.00;101493.72;5075739;28;20059;-36
2022/07/26 06:16:28;;;;;;;11.10;3.55;;;;;;;19.34;81.15;101495.13;5075589;28;20467;-36
2022/07/26 06:18:53;;;;;;;13.15;3.40;;;;;;;19.36;80.94;101489.34;5075553;28;20028;-36
2022/07/26 06:21:18;;;;;;;10.95;3.22;;;;;;;19.37;80.86;101502.78;5075716;28;20036;-36
2022/07/26 06:23:44;;;;;;;7.20;2.80;;;;;;;19.37;80.76;101497.28;5075922;28;20101;-36
2022/07/26 06:26:11;;;;;;;8.95;3.30;;;;;;;19.44;80.70;101488.81;5075068;28;20386;-36
2022/07/26 06:28:38;;;;;;;8.43;3.35;;;;;;;19.50;80.42;101501.41;5075183;28;20028;-36
2022/07/26 06:31:03;;;;;;;6.85;3.10;;;;;;;19.45;80.28;101498.66;5075058;28;20039;-36
2022/07/26 06:33:29;;;;;;;8.07;3.17;;;;;;;19.59;80.13;101497.03;5075537;28;20032;-36
2022/07/26 06:35:54;;;;;;;9.40;3.53;;;;;;;19.63;79.69;101506.38;5074843;28;20028;-36
2022/07/26 06:38:19;;;;;;;12.15;3.13;;;;;;;19.71;79.54;101499.50;5075096;28;20025;-36
2022/07/26 06:40:45;;;;;;;9.23;3.22;;;;;;;19.75;79.55;101504.16;5075407;28;20070;-36
2022/07/26 06:43:10;;;;;;;8.95;2.53;;;;;;;19.71;78.15;101497.56;5075059;28;20372;-36
2022/07/26 06:45:35;;;;;;;7.32;2.63;;;;;;;19.80;77.70;101506.06;5074939;28;20033;-36
2022/07/26 06:48:01;;;;;;;8.18;2.78;;;;;;;19.74;78.01;101508.00;5075211;28;20121;-37
2022/07/26 06:50:26;;;;;;;9.98;3.63;;;;;;;19.72;79.28;101520.38;5075118;28;20432;-36
2022/07/26 06:52:51;;;;;;;8.73;3.53;;;;;;;19.74;79.52;101521.72;5074565;28;20043;-36
2022/07/26 06:55:17;;;;;;;10.20;3.63;;;;;;;19.71;79.25;101522.28;5074736;28;20460;-36
2022/07/26 06:57:42;;;;;;;10.43;2.33;;;;;;;19.62;78.31;101515.72;5074764;28;20032;-36
2022/07/26 07:00:09;;;;;;;10.25;2.25;;;;;;;19.62;77.49;101521.19;5074996;28;20386;-36
2022/07/26 07:02:34;;;;;;;8.10;2.38;;;;;;;19.59;77.26;101531.88;5074803;28;20024;-36
2022/07/26 07:05:00;;;;;;;7.05;2.38;;;;;;;19.67;77.03;101534.91;5074585;28;20090;-36
2022/07/26 07:07:25;;;;;;;6.85;2.05;;;;;;;19.77;76.32;101526.69;5074510;28;20028;-36
2022/07/26 07:09:51;;;;;;;7.20;2.55;;;;;;;19.88;75.82;101515.69;5074744;28;20028;-36
2022/07/26 07:12:16;;;;;;;5.55;2.15;;;;;;;20.10;75.33;101535.38;5075143;28;20036;-36
2022/07/26 07:14:42;;;;;;;6.60;2.42;;;;;;;20.11;74.49;101534.31;5075101;28;20035;-35
2022/07/26 07:17:08;;;;;;;6.20;1.92;;;;;;;20.13;74.17;101540.34;5074630;28;20111;-36
2022/07/26 07:19:35;;;;;;;7.13;1.92;;;;;;;20.21;73.87;101536.22;5074108;28;20029;-36
2022/07/26 07:22:01;;;;;;;6.95;2.20;;;;;;;20.23;71.92;101540.31;5074972;28;20107;-36
2022/07/26 07:24:26;;;;;;;6.93;2.00;;;;;;;20.31;72.98;101541.66;5074288;28;20024;-36
2022/07/26 07:26:52;;;;;;;5.95;2.05;;;;;;;20.35;72.26;101547.41;5074211;28;20067;-36
2022/07/26 07:29:19;;;;;;;5.97;1.80;;;;;;;20.38;71.58;101535.88;5074877;28;20031;-36
2022/07/26 07:31:47;;;;;;;9.27;2.10;;;;;;;20.30;71.45;101538.09;5074070;28;20024;-36
2022/07/26 07:34:13;;;;;;;7.53;2.10;;;;;;;20.26;72.70;101539.75;5074787;28;20029;-37
2022/07/26 07:36:39;;;;;;;4.75;2.03;;;;;;;20.21;72.48;101542.53;5074650;28;20349;-36
2022/07/26 07:39:04;;;;;;;8.75;1.88;;;;;;;20.12;72.83;101552.41;5074012;28;20036;-36
2022/07/26 07:41:33;;;;;;;7.72;1.98;;;;;;;20.03;75.21;101551.34;5073899;28;20496;-36
2022/07/26 07:43:58;;;;;;;7.30;2.40;;;;;;;19.74;78.49;101535.44;5073781;28;20082;-36
2022/07/26 07:46:23;;;;;;;7.80;2.67;;;;;;;19.78;78.64;101566.72;5074179;28;20033;-36
2022/07/26 07:48:49;;;;;;;5.25;1.65;;;;;;;19.63;79.97;101560.44;5073447;28;20028;-36
2022/07/26 07:51:14;;;;;;;6.82;2.40;;;;;;;19.56;81.01;101569.69;5074088;28;20036;-36
2022/07/26 07:53:39;;;;;;;6.00;2.15;;;;;;;19.45;81.98;101569.97;5074425;28;20030;-36
2022/07/26 07:56:05;;;;;;;7.47;2.25;;;;;;;19.49;82.13;101579.31;5073402;28;20394;-36
2022/07/26 07:58:30;;;;;;;3.92;1.20;;;;;;;19.35;80.99;101576.28;5073572;28;20082;-36
2022/07/26 08:00:55;;;;;;;1.60;0.68;;;;;;;19.34;79.84;101571.91;5073929;28;20032;-36
2022/07/26 08:03:21;;;;;;;2.30;0.50;;;;;;;19.33;79.89;101574.91;5073199;28;20463;-36
2022/07/26 08:05:47;;;;;;;;;;;;;;;19.49;78.80;101587.53;5074272;28;20387;-36
2022/07/26 08:08:12;;;;;;;0.98;0.40;;;;;;;19.29;81.53;101578.19;5073471;28;19917;-36
2022/07/26 08:10:37;;;;;;;0.77;0.30;;;;;;;19.33;82.63;101589.44;5073953;28;20107;-36
2022/07/26 08:13:03;;;;;;;1.00;0.40;;;;;;;19.23;82.44;101593.00;5073463;28;20123;-36
2022/07/26 08:15:28;;;;;;;;;;;;;;;19.37;80.40;101600.69;5074027;28;20437;-36
2022/07/26 08:17:53;;;;;;;2.25;0.50;;;;;;;19.18;83.39;101603.94;5073383;28;19919;-36
2022/07/26 08:20:19;;;;;;;1.52;0.40;;;;;;;19.14;82.87;101597.34;5073636;28;20548;-36
2022/07/26 08:22:44;;;;;;;;;;;;;;;19.29;82.01;101594.66;5073760;28;20357;-36
2022/07/26 08:25:09;;;;;;;1.55;0.50;;;;;;;19.23;82.51;101598.47;5072817;28;20263;-36
2022/07/26 08:27:35;;;;;;;1.48;0.57;;;;;;;19.23;82.21;101606.69;5073095;28;20086;-36
2022/07/26 08:30:01;;;;;;;1.98;0.50;;;;;;;19.27;81.03;101602.31;5073878;28;20029;-36
2022/07/26 08:32:26;;;;;;;0.80;0.30;;;;;;;19.32;82.31;101608.91;5071868;28;20020;-36
2022/07/26 08:34:51;;;;;;;1.30;0.38;;;;;;;19.34;81.23;101607.53;5072979;28;20090;-36
2022/07/26 08:37:17;;;;;;;1.85;0.30;;;;;;;19.60;80.31;101604.88;5072715;28;20052;-36
2022/07/26 08:39:43;;;;;;;2.40;0.40;;;;;;;19.64;79.30;101605.97;5073029;28;20029;-36
2022/07/26 08:42:19;;;;;;;1.83;0.47;;;;;;;19.60;78.98;101605.69;5073119;28;20081;-36
2022/07/26 08:44:46;;;;;;;1.98;0.50;;;;;;;19.68;79.79;101623.53;5073728;28;20039;-36
2022/07/26 08:47:17;;;;;;;3.17;0.82;;;;;;;19.37;78.37;101631.66;5072943;28;20161;-36
2022/07/26 08:49:43;;;;;;;2.97;0.47;;;;;;;19.38;79.52;101610.56;5073489;28;20052;-36
2022/07/26 08:52:10;;;;;;;1.67;0.60;;;;;;;19.43;77.03;101635.25;5073019;28;20059;-36
2022/07/26 08:54:35;;;;;;;2.47;0.75;;;;;;;19.68;78.87;101624.34;5072943;28;20380;-36
2022/07/26 08:57:01;;;;;;;2.75;1.00;;;;;;;19.68;78.47;101634.50;5072652;28;20025;-36
2022/07/26 08:59:26;;;;;;;2.25;1.00;;;;;;;19.86;77.94;101627.66;5072773;28;20028;-36
2022/07/26 09:02:18;;;;;;;3.53;1.08;;;;;;;20.09;78.42;101635.34;5072386;28;20028;-37
2022/07/26 09:04:45;;;;;;;3.75;1.02;;;;;;;20.06;76.11;101644.13;5071232;28;20071;-36
2022/07/26 09:07:16;;;;;;;3.92;1.08;;;;;;;20.05;74.43;101645.22;5072567;28;20055;-36
2022/07/26 09:09:53;;;;;;;4.47;1.10;;;;;;;19.91;75.11;101639.47;5072558;28;20112;-36
2022/07/26 09:12:19;;;;;;;2.65;0.82;;;;;;;20.32;74.83;101648.50;5072850;28;20029;-36
2022/07/26 09:14:45;;;;;;;4.75;1.15;;;;;;;20.72;73.81;101643.22;5072783;28;20090;-36
2022/07/26 09:17:12;;;;;;;3.55;0.82;;;;;;;20.92;73.65;101650.56;5072598;28;20089;-36
2022/07/26 09:19:38;;;;;;;4.40;1.20;;;;;;;21.00;72.34;101650.00;5073557;28;20028;-36
2022/07/26 09:22:10;;;;;;;3.88;1.02;;;;;;;21.01;72.32;101630.44;5072254;28;20031;-36
2022/07/26 09:24:40;;;;;;;4.18;1.00;;;;;;;20.95;71.60;101648.09;5071502;28;20020;-36
2022/07/26 09:27:07;;;;;;;3.92;1.10;;;;;;;20.92;72.35;101647.81;5072541;28;20089;-36
2022/07/26 09:29:50;;;;;;;5.75;1.10;;;;;;;20.86;73.19;101658.00;5072451;28;20439;-36
2022/07/26 09:32:24;;;;;;;2.67;0.70;;;;;;;20.54;72.87;101652.88;5072558;28;20035;-36
2022/07/26 09:35:08;;;;;;;3.40;0.90;;;;;;;20.54;73.15;101658.38;5073019;28;20028;-36
2022/07/26 09:37:35;;;;;;;2.25;0.65;;;;;;;20.50;72.47;101671.03;5073474;28;20062;-36
2022/07/26 09:40:06;;;;;;;2.08;0.63;;;;;;;20.68;73.48;101659.44;5075956;28;20024;-36
2022/07/26 09:42:32;;;;;;;2.08;0.60;;;;;;;21.28;71.20;101665.00;5076208;28;20463;-36
2022/07/26 09:44:58;;;;;;;1.35;0.50;;;;;;;21.70;68.40;101663.66;5076914;28;20078;-36
2022/07/26 09:47:39;;;;;;;0.47;0.30;;;;;;;21.62;68.87;101667.84;5075969;28;20120;-36
2022/07/26 09:50:26;;;;;;;1.48;0.40;;;;;;;21.63;68.25;101675.00;5076171;28;20027;-37
2022/07/26 09:53:09;;;;;;;2.13;0.60;;;;;;;21.98;66.96;101668.41;5076265;28;20025;-37
2022/07/26 09:55:44;;;;;;;1.67;0.40;;;;;;;22.06;64.51;101675.22;5076506;28;20049;-37
2022/07/26 09:58:14;;;;;;;1.05;0.50;;;;;;;22.09;65.17;101674.63;5076123;28;20192;-36
2022/07/26 10:00:41;;;;;;;1.67;0.57;;;;;;;22.02;65.33;101671.41;5075945;28;20487;-37
2022/07/26 10:03:06;;;;;;;1.95;0.50;;;;;;;22.06;63.90;101664.22;5076147;28;20021;-36
2022/07/26 10:05:32;;;;;;;1.23;0.40;;;;;;;22.15;63.65;101678.19;5076448;28;20028;-37
2022/07/26 10:07:59;;;;;;;3.78;0.75;;;;;;;21.89;63.14;101681.13;5076188;28;20032;-36
2022/07/26 10:11:02;;;;;;;2.15;0.50;;;;;;;22.08;63.93;101682.09;5075690;28;20134;-36
2022/07/26 10:13:29;;;;;;;1.23;0.30;;;;;;;21.67;60.72;101687.09;5067524;28;20036;-36
2022/07/26 10:15:55;;;;;;;2.05;0.50;;;;;;;21.71;61.72;101682.63;5075794;28;20075;-36
2022/07/26 10:18:36;;;;;;;2.17;0.50;;;;;;;21.75;63.01;101688.38;5075438;28;20036;-36
2022/07/26 10:21:18;;;;;;;1.73;0.40;;;;;;;21.65;63.03;101682.97;5075527;28;20025;-36
2022/07/26 10:23:49;;;;;;;3.03;0.75;;;;;;;21.65;62.99;101694.78;5075198;28;20070;-36
2022/07/26 10:26:30;;;;;;;2.08;0.50;;;;;;;21.66;63.89;101679.91;5076174;28;20372;-36
2022/07/26 10:29:15;;;;;;;1.00;0.47;;;;;;;21.62;64.90;101687.13;5075099;28;20032;-36
2022/07/26 10:32:01;;;;;;;1.48;0.52;;;;;;;21.76;63.58;101688.09;5076000;28;20032;-36
2022/07/26 10:34:38;;;;;;;2.67;0.63;;;;;;;21.66;63.38;101690.09;5071356;28;20032;-36
2022/07/26 10:37:07;;;;;;;1.15;0.38;;;;;;;21.76;62.78;101693.59;5075538;28;20032;-36
2022/07/26 10:39:34;;;;;;;1.70;0.50;;;;;;;21.82;62.87;101695.22;5075033;28;20020;-36
2022/07/26 10:42:05;;;;;;;2.08;0.93;;;;;;;21.82;63.17;101694.41;5075949;28;20036;-36
2022/07/26 10:44:32;;;;;;;1.75;0.55;;;;;;;21.79;62.14;101695.78;5075371;28;20350;-36
2022/07/26 10:47:06;;;;;;;2.40;0.80;;;;;;;21.89;63.21;101694.91;5074959;28;20033;-36
2022/07/26 10:49:35;;;;;;;2.35;0.65;;;;;;;21.76;62.29;101696.34;5075176;28;20025;-36
2022/07/26 10:52:10;;;;;;;1.88;0.50;;;;;;;21.65;62.24;101692.03;5074900;28;20099;-36
2022/07/26 10:55:08;;;;;;;3.50;0.77;;;;;;;21.80;62.27;101700.19;5074789;28;20048;-36
2022/07/26 10:57:42;;;;;;;1.98;0.52;;;;;;;21.68;62.12;101710.75;5052843;28;20408;-36
2022/07/26 11:00:11;;;;;;;2.05;0.57;;;;;;;21.52;62.41;101709.16;5052820;28;20341;-36
2022/07/26 11:02:37;;;;;;;1.85;0.60;;;;;;;21.48;63.64;101721.88;5052988;28;20128;-36
2022/07/26 11:05:11;;;;;;;2.65;0.90;;;;;;;21.23;65.86;101723.59;5052528;28;20116;-36
2022/07/26 11:07:46;;;;;;;2.83;0.80;;;;;;;20.90;68.66;101741.56;5052596;28;20169;-35
2022/07/26 11:10:11;;;;;;;5.78;1.02;;;;;;;20.62;74.83;101753.16;5052449;28;20025;-36
2022/07/26 11:12:37;;;;;;;5.63;1.17;;;;;;;20.35;77.25;101756.16;5052108;28;20033;-36
2022/07/26 11:15:14;;;;;;;4.68;1.25;;;;;;;20.16;77.86;101755.88;5052698;28;20492;-36
2022/07/26 11:17:39;;;;;;;4.75;1.10;;;;;;;20.02;79.62;101761.09;5052618;28;20044;-36
2022/07/26 11:20:05;;;;;;;4.65;1.00;;;;;;;19.85;80.40;101755.00;5052392;28;20041;-36
2022/07/26 11:22:32;;;;;;;2.75;1.02;;;;;;;19.73;80.63;101756.06;5052296;28;20025;-36
2022/07/26 11:24:57;;;;;;;3.53;0.95;;;;;;;19.43;80.12;101758.69;5052845;28;20029;-36
2022/07/26 11:27:23;;;;;;;3.58;1.15;;;;;;;19.38;81.84;101769.63;5052379;28;20037;-36
2022/07/26 11:29:48;;;;;;;2.25;0.90;;;;;;;19.43;80.18;101754.03;5052240;28;20146;-37
2022/07/26 11:32:23;;;;;;;3.67;0.88;;;;;;;19.43;81.82;101748.53;5055211;28;20044;-37
2022/07/26 11:34:59;;;;;;;2.17;0.75;;;;;;;19.46;80.54;101758.13;5073492;28;20048;-37
2022/07/26 11:37:24;;;;;;;;;;;;;;;19.68;78.17;101756.06;5074609;28;20029;-37
2022/07/26 11:39:50;;;;;;;3.28;1.25;;;;;;;19.41;80.35;101767.16;5073798;28;19914;-37